Latest Weather Observations for Kurnell

IDN60901

Issued at 8:01 pm EDT Wednesday 25 November 2020 (issued every 10 minutes, with the page automatically refreshed every 10 minutes)

About weather observations | Map of Sydney area stations | Latest observations for Sydney area | Other Formats
Station Details ID: 066043 Name: KURNELL AWS Lat: -34.00 Lon: 151.21 Height: 4.0 m
Data from the previous 72 hours. | See also: Recent months at Kurnell
Date/Time
EDT
Temp
°C
App
Temp
°C
Dew
Point
°C
Rel
Hum
%
Delta-T
°C
Wind Press
QNH
hPa
Press
MSL
hPa
Rain since
9am
mm
Dir  Spd
km/h
Gust
km/h
Spd
kts
Gust
kts
25/08:00pm - - - - - NE 32 37 17 20 - - -
25/07:30pm - - - - - NE 32 39 17 21 - - -
25/07:00pm - - - - - NE 33 39 18 21 - - -
25/06:30pm - - - - - NE 32 37 17 20 - - -
25/06:00pm - - - - - NE 32 37 17 20 - - -
25/05:30pm - - - - - ENE 32 37 17 20 - - -
25/05:00pm - - - - - ENE 28 33 15 18 - - -
25/04:30pm - - - - - ENE 28 33 15 18 - - -
25/04:00pm - - - - - ENE 26 32 14 17 - - -
25/03:30pm - - - - - ENE 28 32 15 17 - - -
25/03:00pm - - - - - ENE 26 32 14 17 - - -
25/02:30pm - - - - - ENE 26 30 14 16 - - -
25/02:00pm - - - - - ENE 19 26 10 14 - - -
25/01:30pm - - - - - ENE 17 20 9 11 - - -
25/01:00pm - - - - - E 17 22 9 12 - - -
25/12:30pm - - - - - E 15 20 8 11 - - -
25/12:00pm - - - - - E 13 19 7 10 - - -
25/11:30am - - - - - ESE 11 15 6 8 - - -
25/11:00am - - - - - ESE 13 15 7 8 - - -
25/10:30am - - - - - ESE 13 15 7 8 - - -
25/10:00am - - - - - E 11 15 6 8 - - -
25/09:30am - - - - - SE 13 17 7 9 - - -
25/09:00am - - - - - E 11 15 6 8 - - -
25/08:30am - - - - - S 2 7 1 4 - - -
25/08:00am - - - - - CALM 0 0 0 0 - - -
25/07:30am - - - - - CALM 0 0 0 0 - - -
25/07:00am - - - - - SW 7 7 4 4 - - -
25/06:30am - - - - - WSW 9 11 5 6 - - -
25/06:00am - - - - - W 9 11 5 6 - - -
25/05:30am - - - - - W 7 9 4 5 - - -
25/05:00am - - - - - W 11 15 6 8 - - -
25/04:30am - - - - - SSE 7 9 4 5 - - -
25/04:00am - - - - - NE 9 15 5 8 - - -
25/03:30am - - - - - NE 17 19 9 10 - - -
25/03:00am - - - - - ESE 9 13 5 7 - - -
25/02:30am - - - - - S 9 13 5 7 - - -
25/02:00am - - - - - S 9 11 5 6 - - -
25/01:30am - - - - - S 9 11 5 6 - - -
25/01:00am - - - - - SSW 6 7 3 4 - - -
25/12:30am - - - - - S 9 11 5 6 - - -
25/12:00am - - - - - SSE 9 11 5 6 - - -
 
Date/Time
EDT
Temp
°C
App
Temp
°C
Dew
Point
°C
Rel
Hum
%
Delta-T
°C
Wind Press
QNH
hPa
Press
MSL
hPa
Rain since
9am
mm
Dir  Spd
km/h
Gust
km/h
Spd
kts
Gust
kts
24/11:30pm - - - - - S 11 13 6 7 - - -
24/11:00pm - - - - - SSE 11 15 6 8 - - -
24/10:30pm - - - - - SSE 11 15 6 8 - - -
24/10:00pm - - - - - SE 13 19 7 10 - - -
24/09:30pm - - - - - SSE 13 19 7 10 - - -
24/09:00pm - - - - - SSE 15 20 8 11 - - -
24/08:30pm - - - - - SSE 13 20 7 11 - - -
24/08:00pm - - - - - SSE 15 20 8 11 - - -
24/07:30pm - - - - - SSE 17 24 9 13 - - -
24/07:00pm - - - - - SSE 17 26 9 14 - - -
24/06:30pm - - - - - SSE 19 26 10 14 - - -
24/06:00pm - - - - - SSE 22 30 12 16 - - -
24/05:30pm - - - - - SSE 24 30 13 16 - - -
24/05:00pm - - - - - SSE 28 37 15 20 - - -
24/04:30pm - - - - - SSE 28 35 15 19 - - -
24/04:00pm - - - - - S 26 35 14 19 - - -
24/03:30pm - - - - - S 28 39 15 21 - - -
24/03:00pm - - - - - SSE 32 41 17 22 - - -
24/02:30pm - - - - - S 30 39 16 21 - - -
24/02:00pm - - - - - S 32 39 17 21 - - -
24/01:30pm - - - - - S 32 39 17 21 - - -
24/01:00pm - - - - - S 30 43 16 23 - - -
24/12:30pm - - - - - SSW 33 44 18 24 - - -
24/12:00pm - - - - - S 32 39 17 21 - - -
24/11:30am - - - - - S 35 43 19 23 - - -
24/11:00am - - - - - S 33 48 18 26 - - -
24/10:30am - - - - - SSW 35 46 19 25 - - -
24/10:00am - - - - - SSW 33 43 18 23 - - -
24/09:30am - - - - - SSW 37 48 20 26 - - -
24/09:00am - - - - - S 33 46 18 25 - - -
24/08:30am - - - - - SSW 32 44 17 24 - - -
24/08:00am - - - - - S 32 43 17 23 - - -
24/07:30am - - - - - S 30 41 16 22 - - -
24/07:00am - - - - - S 26 33 14 18 - - -
24/06:30am - - - - - S 28 39 15 21 - - -
24/06:00am - - - - - SSW 30 41 16 22 - - -
24/05:30am - - - - - SSW 26 35 14 19 - - -
24/05:00am - - - - - SSW 22 30 12 16 - - -
24/04:30am - - - - - SSW 22 32 12 17 - - -
24/04:00am - - - - - SSW 22 30 12 16 - - -
24/03:30am - - - - - SSW 20 26 11 14 - - -
24/03:00am - - - - - SSW 19 26 10 14 - - -
24/02:30am - - - - - SSW 24 32 13 17 - - -
24/02:00am - - - - - SSW 26 32 14 17 - - -
24/01:30am - - - - - SSW 24 30 13 16 - - -
24/01:00am - - - - - SSW 24 32 13 17 - - -
24/12:30am - - - - - SSW 19 26 10 14 - - -
24/12:00am - - - - - SW 17 22 9 12 - - -
 
Date/Time
EDT
Temp
°C
App
Temp
°C
Dew
Point
°C
Rel
Hum
%
Delta-T
°C
Wind Press
QNH
hPa
Press
MSL
hPa
Rain since
9am
mm
Dir  Spd
km/h
Gust
km/h
Spd
kts
Gust
kts
23/11:30pm - - - - - SSW 22 32 12 17 - - -
23/11:00pm - - - - - SSW 26 35 14 19 - - -
23/10:30pm - - - - - SSW 28 35 15 19 - - -
23/10:00pm - - - - - SSW 28 35 15 19 - - -
23/09:30pm - - - - - S 28 39 15 21 - - -
23/09:00pm - - - - - S 20 28 11 15 - - -
23/08:30pm - - - - - SSW 30 37 16 20 - - -
23/08:00pm - - - - - SSW 26 33 14 18 - - -
23/07:30pm - - - - - S 28 35 15 19 - - -
23/07:00pm - - - - - SSW 32 43 17 23 - - -
23/06:30pm - - - - - WNW 32 37 17 20 - - -
23/06:00pm - - - - - NW 30 33 16 18 - - -
23/05:30pm - - - - - WNW 13 19 7 10 - - -
23/05:00pm - - - - - SW 19 22 10 12 - - -
23/04:30pm - - - - - NW 19 22 10 12 - - -
23/04:00pm - - - - - NNW 26 30 14 16 - - -
23/03:30pm - - - - - NNW 19 26 10 14 - - -
23/03:00pm - - - - - NW 20 26 11 14 - - -
23/02:30pm - - - - - NNW 33 44 18 24 - - -
23/02:00pm - - - - - NNW 39 50 21 27 - - -
23/01:30pm - - - - - NW 44 56 24 30 - - -
23/01:00pm - - - - - NNW 32 41 17 22 - - -
23/12:30pm - - - - - NW 30 37 16 20 - - -
23/12:16pm - - - - - NW 24 37 13 20 - - -
23/12:00pm - - - - - W 13 19 7 10 - - -
23/11:30am - - - - - NW 17 19 9 10 - - -
23/11:00am - - - - - NW 19 20 10 11 - - -
23/10:30am - - - - - NW 20 24 11 13 - - -
23/10:00am - - - - - NNW 19 24 10 13 - - -
23/09:30am - - - - - NNW 17 22 9 12 - - -
23/09:00am - - - - - NNW 17 19 9 10 - - -
23/08:30am - - - - - N 9 11 5 6 - - -
23/08:00am - - - - - N 15 19 8 10 - - -
23/07:30am - - - - - WNW 7 9 4 5 - - -
23/07:00am - - - - - SW 11 15 6 8 - - -
23/06:30am - - - - - SSW 13 17 7 9 - - -
23/06:00am - - - - - SSW 17 24 9 13 - - -
23/05:30am - - - - - SSW 17 20 9 11 - - -
23/05:00am - - - - - SW 17 24 9 13 - - -
23/04:30am - - - - - SW 22 30 12 16 - - -
23/04:00am - - - - - W 30 44 16 24 - - -
23/03:58am - - - - - W 28 44 15 24 - - -
23/03:30am - - - - - S 2 4 1 2 - - -
23/03:00am - - - - - S 7 7 4 4 - - -
23/02:30am - - - - - SSW 9 11 5 6 - - -
23/02:00am - - - - - CALM 0 6 0 3 - - -
23/01:30am - - - - - NNW 6 7 3 4 - - -
23/01:00am - - - - - NNE 7 7 4 4 - - -
23/12:30am - - - - - NNE 6 7 3 4 - - -
23/12:00am - - - - - NE 7 9 4 5 - - -
 
Date/Time
EDT
Temp
°C
App
Temp
°C
Dew
Point
°C
Rel
Hum
%
Delta-T
°C
Wind Press
QNH
hPa
Press
MSL
hPa
Rain since
9am
mm
Dir  Spd
km/h
Gust
km/h
Spd
kts
Gust
kts
22/11:30pm - - - - - NE 9 11 5 6 - - -
22/11:00pm - - - - - NNE 7 9 4 5 - - -
22/10:30pm - - - - - NNE 7 7 4 4 - - -
22/10:00pm - - - - - NE 2 6 1 3 - - -
22/09:30pm - - - - - NE 6 7 3 4 - - -
22/09:00pm - - - - - NE 6 7 3 4 - - -
22/08:30pm - - - - - NE 9 11 5 6 - - -

Latest Capital City Observations: Canberra | Sydney | Melbourne | Brisbane | Adelaide | Perth | Hobart | Darwin

Other formats

Comma delimited format used in spreadsheet applications
http://www.bom.gov.au/fwo/IDN60901/IDN60901.95756.axf

JavaScript Object Notation format (JSON) in row-major order
http://www.bom.gov.au/fwo/IDN60901/IDN60901.95756.json

Data quality

Most of these data are generated automatically and are frequently updated. Quality checks on data are not normally performed. It is possible for incorrect values to appear. Refer to information at About Latest Weather Observations and please check the disclaimer before using these data.